Curtis, Texas
Current Conditions -  °F | °C
As of 8:55 PM on Tuesday 21 Oct 2014 (Local Time) from KJAS Reporting Station
Clear Clear  
Wind Chill: 18°   Ceiling: Unl
Heat Index: 18°   Visibility: 10mi
Dew Point: 17°   Wind: 0mph
Humidity: 94%   Direction: NA
Pressure: 30.06"   Gusts: NA
Location:  30.9529°N, 94.0707°W
Report Text: KJAS 220155Z AUTO 00000KT 10SM CLR 18/17 A3006 RMK AO2 T01760166
Loading
Personal Weather Stations






























Interactive Weather Map
Tropical Storm Tracking
New forecast layout! Learn more

10-Day Weather Forecast

Advertisements
Track Severe Weather on mobile